Time;durP1;ratioP1;P1;durP2;ratioP2;P2;SDS_P1;SDS_P2;PMS_P1;PMS_P2;Temp;Humidity;BMP_temperature;BMP_pressure;BME280_temperature;BME280_humidity;BME280_pressure;Samples;Min_cycle;Max_cycle;Signal;HPM_P1;HPM_P2
2024/02/27 00:00:38;;;;;;;27.60;15.73;;;;;;;;;;5125059;27;319414;-79
2024/02/27 00:03:06;;;;;;;36.57;18.00;;;;;;;;;;5132197;27;319284;-79
2024/02/27 00:05:34;;;;;;;26.43;18.10;;;;;;;;;;5126921;27;319231;-79
2024/02/27 00:08:04;;;;;;;32.47;18.97;;;;;;;;;;5146158;27;318386;-79
2024/02/27 00:10:32;;;;;;;39.13;21.87;;;;;;;;;;5127096;27;318076;-80
2024/02/27 00:13:01;;;;;;;48.37;27.13;;;;;;;;;;5146888;27;319218;-80
2024/02/27 00:15:39;;;;;;;65.83;32.13;;;;;;;;;;5112364;27;317467;-78
2024/02/27 00:18:13;;;;;;;38.47;22.17;;;;;;;;;;5144279;27;319307;-79
2024/02/27 00:20:44;;;;;;;44.47;24.53;;;;;;;;;;5134705;27;344775;-79
2024/02/27 00:23:15;;;;;;;45.17;22.17;;;;;;;;;;5136881;27;317441;-79
2024/02/27 00:25:41;;;;;;;51.07;25.53;;;;;;;;;;5123180;27;349776;-80
2024/02/27 00:28:09;;;;;;;51.43;27.57;;;;;;;;;;5146853;27;319248;-79
2024/02/27 00:30:38;;;;;;;43.87;26.70;;;;;;;;;;5134628;27;319485;-79
2024/02/27 00:33:13;;;;;;;31.97;19.00;;;;;;;;;;5140810;27;318224;-78
2024/02/27 00:35:43;;;;;;;46.03;23.57;;;;;;;;;;5150624;27;316490;-78
2024/02/27 00:38:10;;;;;;;51.53;27.63;;;;;;;;;;5155231;27;317429;-77
2024/02/27 00:40:41;;;;;;;52.43;28.80;;;;;;;;;;5145428;27;317644;-81
2024/02/27 00:43:08;;;;;;;52.40;25.80;;;;;;;;;;5158064;27;351724;-78
2024/02/27 00:45:36;;;;;;;53.13;28.17;;;;;;;;;;5135735;27;318660;-78
2024/02/27 00:48:03;;;;;;;57.93;31.73;;;;;;;;;;5147330;27;318918;-78
2024/02/27 00:50:34;;;;;;;53.57;28.80;;;;;;;;;;5121940;27;331717;-78
2024/02/27 00:53:01;;;;;;;50.07;28.70;;;;;;;;;;5147998;27;318804;-78
2024/02/27 00:55:34;;;;;;;44.73;26.93;;;;;;;;;;5133636;27;317591;-78
2024/02/27 00:58:02;;;;;;;45.30;28.17;;;;;;;;;;5146304;27;319011;-79
2024/02/27 01:00:29;;;;;;;46.17;25.83;;;;;;;;;;5133444;27;318931;-79
2024/02/27 01:02:57;;;;;;;47.17;27.53;;;;;;;;;;5141916;27;318843;-80
2024/02/27 01:05:24;;;;;;;54.30;27.90;;;;;;;;;;5135332;27;318891;-78
2024/02/27 01:07:52;;;;;;;54.40;27.57;;;;;;;;;;5147097;27;317434;-79
2024/02/27 01:10:21;;;;;;;44.90;24.53;;;;;;;;;;5147068;27;317527;-79
2024/02/27 01:12:49;;;;;;;38.13;23.10;;;;;;;;;;5096711;27;418473;-79
2024/02/27 01:15:19;;;;;;;39.07;21.93;;;;;;;;;;5137200;27;317762;-80
2024/02/27 01:17:46;;;;;;;42.30;21.73;;;;;;;;;;5134690;27;319176;-79
2024/02/27 01:20:14;;;;;;;37.80;22.87;;;;;;;;;;5146643;27;319129;-79
2024/02/27 01:22:43;;;;;;;35.77;20.27;;;;;;;;;;5125073;27;318825;-79
2024/02/27 01:25:16;;;;;;;35.20;21.70;;;;;;;;;;5145633;27;317803;-79
2024/02/27 01:27:43;;;;;;;39.30;20.90;;;;;;;;;;5133791;27;318630;-80
2024/02/27 01:30:12;;;;;;;35.43;20.63;;;;;;;;;;5144817;27;318845;-78
2024/02/27 01:32:38;;;;;;;35.60;20.47;;;;;;;;;;5124975;27;318774;-78
2024/02/27 01:35:05;;;;;;;37.53;19.60;;;;;;;;;;5142550;27;359488;-78
2024/02/27 01:37:34;;;;;;;40.50;19.57;;;;;;;;;;5134252;27;319468;-79
2024/02/27 01:40:04;;;;;;;36.13;20.23;;;;;;;;;;5144970;27;331450;-80
2024/02/27 01:42:33;;;;;;;34.73;20.27;;;;;;;;;;5131978;27;317664;-79
2024/02/27 01:45:02;;;;;;;34.33;19.40;;;;;;;;;;5147006;27;318261;-81
2024/02/27 01:47:28;;;;;;;30.10;19.53;;;;;;;;;;5132729;27;328206;-80
2024/02/27 01:49:56;;;;;;;39.30;23.50;;;;;;;;;;5144619;27;317759;-80
2024/02/27 01:52:26;;;;;;;50.77;26.40;;;;;;;;;;5134107;27;318312;-80
2024/02/27 01:54:54;;;;;;;53.60;28.57;;;;;;;;;;5137551;27;318729;-79
2024/02/27 01:57:22;;;;;;;35.83;22.07;;;;;;;;;;5143008;27;318960;-78
2024/02/27 01:59:53;;;;;;;35.43;21.97;;;;;;;;;;5129377;27;419696;-78
2024/02/27 02:02:23;;;;;;;34.13;21.13;;;;;;;;;;5145149;27;319447;-78
2024/02/27 02:04:52;;;;;;;57.90;34.93;;;;;;;;;;5122611;27;418914;-79
2024/02/27 02:07:20;;;;;;;47.30;31.17;;;;;;;;;;5146016;27;317815;-79
2024/02/27 02:09:48;;;;;;;32.17;21.37;;;;;;;;;;5125624;27;318868;-79
2024/02/27 02:12:16;;;;;;;30.13;18.00;;;;;;;;;;5140407;27;318750;-79
2024/02/27 02:14:48;;;;;;;28.93;18.10;;;;;;;;;;5127261;27;318894;-79
2024/02/27 02:17:17;;;;;;;32.73;17.73;;;;;;;;;;5145291;27;320511;-81
2024/02/27 02:19:47;;;;;;;33.23;18.50;;;;;;;;;;5135032;27;317597;-79
2024/02/27 02:22:16;;;;;;;31.00;18.40;;;;;;;;;;5145284;27;318652;-79
2024/02/27 02:24:43;;;;;;;28.27;18.17;;;;;;;;;;5119445;27;318721;-80
2024/02/27 02:27:14;;;;;;;37.30;18.13;;;;;;;;;;5145535;27;318855;-79
2024/02/27 02:29:41;;;;;;;34.13;17.43;;;;;;;;;;5135168;27;318640;-80
2024/02/27 02:32:10;;;;;;;28.83;16.60;;;;;;;;;;5148947;27;318785;-80
2024/02/27 02:34:36;;;;;;;34.40;17.17;;;;;;;;;;5126853;27;319560;-80
2024/02/27 02:37:04;;;;;;;30.73;16.87;;;;;;;;;;5125833;27;317321;-80
2024/02/27 02:39:33;;;;;;;35.53;16.90;;;;;;;;;;5113254;27;318620;-80
2024/02/27 02:42:01;;;;;;;30.27;17.57;;;;;;;;;;5138645;27;318184;-79
2024/02/27 02:44:30;;;;;;;29.77;18.83;;;;;;;;;;5121528;27;318810;-79
2024/02/27 02:46:59;;;;;;;38.87;20.90;;;;;;;;;;5142081;27;317344;-79
2024/02/27 02:49:26;;;;;;;38.90;21.07;;;;;;;;;;5145484;27;318732;-80
2024/02/27 02:51:54;;;;;;;45.57;22.20;;;;;;;;;;5162421;27;355820;-78
2024/02/27 02:54:20;;;;;;;33.20;20.40;;;;;;;;;;5163987;27;317386;-80
2024/02/27 02:56:48;;;;;;;48.00;21.63;;;;;;;;;;5145615;27;316854;-77
2024/02/27 02:59:16;;;;;;;34.30;19.97;;;;;;;;;;5166286;27;317337;-78
2024/02/27 03:01:45;;;;;;;34.03;19.83;;;;;;;;;;5152497;27;317626;-77
2024/02/27 03:04:13;;;;;;;25.20;18.03;;;;;;;;;;5154306;27;333606;-80
2024/02/27 03:06:42;;;;;;;31.13;19.17;;;;;;;;;;5126332;27;318665;-81
2024/02/27 03:09:13;;;;;;;34.50;21.40;;;;;;;;;;5141735;27;319487;-80
2024/02/27 03:11:44;;;;;;;35.00;22.30;;;;;;;;;;5133652;27;319752;-80
2024/02/27 03:14:12;;;;;;;29.87;18.53;;;;;;;;;;5145850;27;320097;-79
2024/02/27 03:16:39;;;;;;;31.40;17.63;;;;;;;;;;5125465;27;319298;-78
2024/02/27 03:19:07;;;;;;;29.30;17.80;;;;;;;;;;5149522;27;318340;-80
2024/02/27 03:21:35;;;;;;;23.27;14.97;;;;;;;;;;5133100;27;319077;-80
2024/02/27 03:24:03;;;;;;;19.37;12.40;;;;;;;;;;5144339;27;318536;-81
2024/02/27 03:26:33;;;;;;;25.60;13.37;;;;;;;;;;5131384;27;318592;-79
2024/02/27 03:28:59;;;;;;;20.97;11.93;;;;;;;;;;5142659;27;317553;-81
2024/02/27 03:31:28;;;;;;;23.97;13.73;;;;;;;;;;5133131;27;319114;-79
2024/02/27 03:33:57;;;;;;;29.93;14.13;;;;;;;;;;5144665;27;318949;-79
2024/02/27 03:36:25;;;;;;;23.17;13.73;;;;;;;;;;5132945;27;318864;-79
2024/02/27 03:38:53;;;;;;;26.57;13.50;;;;;;;;;;5127397;27;318616;-78
2024/02/27 03:41:20;;;;;;;28.93;15.13;;;;;;;;;;5146671;27;317488;-80
2024/02/27 03:43:48;;;;;;;23.57;14.20;;;;;;;;;;5103217;27;418380;-78
2024/02/27 03:46:16;;;;;;;26.37;16.67;;;;;;;;;;5145957;27;318421;-80
2024/02/27 03:48:45;;;;;;;27.53;17.80;;;;;;;;;;5122264;27;319351;-78
2024/02/27 03:51:12;;;;;;;28.50;17.00;;;;;;;;;;5125090;27;318984;-80
2024/02/27 03:53:39;;;;;;;24.07;16.63;;;;;;;;;;5132366;27;318452;-80
2024/02/27 03:56:06;;;;;;;29.10;18.07;;;;;;;;;;5142558;27;319786;-79
2024/02/27 03:58:35;;;;;;;39.83;18.43;;;;;;;;;;5117240;27;318836;-81
2024/02/27 04:01:02;;;;;;;31.83;19.53;;;;;;;;;;5139198;27;317620;-80
2024/02/27 04:03:30;;;;;;;38.10;20.50;;;;;;;;;;5131940;27;319389;-80
2024/02/27 04:05:58;;;;;;;36.80;20.63;;;;;;;;;;5142793;27;318460;-80
2024/02/27 04:08:26;;;;;;;30.73;18.97;;;;;;;;;;5131507;27;319515;-80
2024/02/27 04:10:54;;;;;;;37.40;20.00;;;;;;;;;;5135347;27;318910;-78
2024/02/27 04:13:24;;;;;;;37.30;20.93;;;;;;;;;;5144380;27;319116;-79
2024/02/27 04:15:51;;;;;;;37.50;20.43;;;;;;;;;;5129615;27;419250;-81
2024/02/27 04:18:19;;;;;;;34.73;20.40;;;;;;;;;;5145198;27;319229;-81
2024/02/27 04:20:49;;;;;;;36.63;19.70;;;;;;;;;;5125291;27;318865;-80
2024/02/27 04:23:17;;;;;;;48.57;23.10;;;;;;;;;;5145880;27;317761;-80
2024/02/27 04:25:45;;;;;;;40.00;23.80;;;;;;;;;;5132802;27;324760;-80
2024/02/27 04:28:14;;;;;;;43.87;25.27;;;;;;;;;;5141517;27;318622;-80
2024/02/27 04:30:44;;;;;;;46.73;24.00;;;;;;;;;;5125499;27;318536;-80
2024/02/27 04:33:11;;;;;;;59.20;28.67;;;;;;;;;;5145460;27;319198;-80
2024/02/27 04:35:39;;;;;;;54.53;26.53;;;;;;;;;;5132667;27;319029;-80
2024/02/27 04:38:08;;;;;;;50.33;26.73;;;;;;;;;;5145709;27;319188;-80
2024/02/27 04:40:37;;;;;;;52.00;26.00;;;;;;;;;;5128339;27;319620;-79
2024/02/27 04:43:04;;;;;;;51.80;24.47;;;;;;;;;;5150092;27;319111;-79
2024/02/27 04:45:34;;;;;;;52.03;27.63;;;;;;;;;;5138132;27;318466;-81
2024/02/27 04:48:00;;;;;;;47.70;25.60;;;;;;;;;;5148017;27;318521;-82
2024/02/27 04:50:28;;;;;;;47.97;24.97;;;;;;;;;;5138396;27;319020;-80
2024/02/27 04:52:57;;;;;;;48.33;25.53;;;;;;;;;;5142714;27;319047;-80
2024/02/27 04:55:25;;;;;;;64.53;32.43;;;;;;;;;;5136697;27;319005;-79
2024/02/27 04:57:55;;;;;;;84.60;39.37;;;;;;;;;;5149858;27;317570;-80
2024/02/27 05:00:24;;;;;;;75.13;39.27;;;;;;;;;;5149286;27;319184;-79
2024/02/27 05:02:51;;;;;;;73.47;37.10;;;;;;;;;;5125394;27;419641;-81
2024/02/27 05:05:17;;;;;;;43.00;23.80;;;;;;;;;;5148498;27;329928;-80
2024/02/27 05:07:46;;;;;;;32.57;21.27;;;;;;;;;;5138054;27;319441;-80
2024/02/27 05:10:13;;;;;;;39.37;21.80;;;;;;;;;;5149161;27;318306;-79
2024/02/27 05:12:41;;;;;;;39.23;24.00;;;;;;;;;;5129086;27;318178;-80
2024/02/27 05:15:10;;;;;;;53.97;29.10;;;;;;;;;;5149281;27;318839;-79
2024/02/27 05:17:37;;;;;;;50.97;30.30;;;;;;;;;;5138052;27;317518;-79
2024/02/27 05:20:05;;;;;;;61.10;31.50;;;;;;;;;;5147916;27;318276;-80
2024/02/27 05:22:32;;;;;;;63.93;32.03;;;;;;;;;;5133566;27;318337;-79
2024/02/27 05:27:26;;;;;;;50.33;33.67;;;;;;;;;;5136865;27;317494;-79
2024/02/27 05:29:55;;;;;;;56.17;32.33;;;;;;;;;;5160836;27;315407;-79
2024/02/27 05:32:25;;;;;;;52.10;32.87;;;;;;;;;;5161691;27;317733;-78
2024/02/27 05:34:52;;;;;;;53.37;31.60;;;;;;;;;;5140793;27;418769;-78
2024/02/27 05:37:19;;;;;;;55.50;31.73;;;;;;;;;;5161110;27;316493;-79
2024/02/27 05:39:46;;;;;;;48.80;30.00;;;;;;;;;;5152306;27;316393;-79
2024/02/27 05:42:14;;;;;;;54.77;31.80;;;;;;;;;;5149677;27;317342;-79
2024/02/27 05:44:42;;;;;;;50.37;30.60;;;;;;;;;;5111156;27;318173;-80
2024/02/27 05:47:09;;;;;;;57.43;33.37;;;;;;;;;;5146565;27;318518;-79
2024/02/27 05:49:38;;;;;;;63.43;29.23;;;;;;;;;;5134702;27;346623;-80
2024/02/27 05:52:05;;;;;;;42.87;27.63;;;;;;;;;;5146832;27;317777;-79
2024/02/27 05:54:35;;;;;;;46.27;28.77;;;;;;;;;;5131395;27;356850;-79
2024/02/27 05:57:05;;;;;;;51.93;29.80;;;;;;;;;;5146743;27;318292;-79
2024/02/27 05:59:36;;;;;;;45.13;27.47;;;;;;;;;;5137244;27;317744;-81
2024/02/27 06:02:05;;;;;;;47.23;29.13;;;;;;;;;;5147149;27;317867;-79
2024/02/27 06:04:34;;;;;;;55.70;29.53;;;;;;;;;;5130225;27;317677;-79
2024/02/27 06:07:02;;;;;;;48.57;27.40;;;;;;;;;;5147002;27;317609;-79
2024/02/27 06:09:30;;;;;;;59.00;31.73;;;;;;;;;;5115960;27;317657;-80
2024/02/27 06:11:58;;;;;;;50.43;29.67;;;;;;;;;;5135543;27;317576;-79
2024/02/27 06:14:26;;;;;;;52.77;31.43;;;;;;;;;;5135982;27;318057;-80
2024/02/27 06:16:52;;;;;;;59.87;35.33;;;;;;;;;;5139823;27;317872;-79
2024/02/27 06:19:19;;;;;;;44.43;27.83;;;;;;;;;;5146858;27;316350;-79
2024/02/27 06:24:37;;;;;;;53.43;32.60;;;;;;;;;;5133154;27;318201;-79
2024/02/27 06:27:07;;;;;;;61.40;33.03;;;;;;;;;;5148304;27;317642;-79
2024/02/27 06:29:35;;;;;;;66.83;35.60;;;;;;;;;;5135811;27;318293;-80
2024/02/27 06:32:06;;;;;;;59.23;34.30;;;;;;;;;;5148266;27;316671;-80
2024/02/27 06:34:36;;;;;;;67.17;35.73;;;;;;;;;;5117321;27;319347;-80
2024/02/27 06:37:05;;;;;;;67.93;36.10;;;;;;;;;;5143344;27;317710;-79
2024/02/27 06:39:39;;;;;;;75.27;34.23;;;;;;;;;;5130458;27;317686;-79
2024/02/27 06:42:08;;;;;;;63.40;33.07;;;;;;;;;;5143275;27;317849;-79
2024/02/27 06:44:38;;;;;;;51.47;31.27;;;;;;;;;;5124041;27;318217;-81
2024/02/27 06:47:06;;;;;;;68.00;34.20;;;;;;;;;;5133042;27;318753;-79
2024/02/27 06:49:33;;;;;;;54.57;32.73;;;;;;;;;;5130784;27;343359;-79
2024/02/27 06:52:00;;;;;;;63.77;32.53;;;;;;;;;;5146148;27;318762;-79
2024/02/27 06:54:28;;;;;;;58.10;31.77;;;;;;;;;;5132787;27;318598;-79
2024/02/27 06:56:58;;;;;;;45.57;29.30;;;;;;;;;;5137529;27;318822;-79
2024/02/27 06:59:26;;;;;;;61.07;32.90;;;;;;;;;;5135121;27;319212;-80
2024/02/27 07:01:54;;;;;;;59.90;34.00;;;;;;;;;;5147770;27;318873;-80
2024/02/27 07:04:22;;;;;;;66.33;32.17;;;;;;;;;;5145535;27;318684;-80
2024/02/27 07:06:50;;;;;;;52.23;32.27;;;;;;;;;;5091871;27;418439;-81
2024/02/27 07:09:17;;;;;;;47.23;26.70;;;;;;;;;;5145623;27;317468;-79
2024/02/27 07:11:45;;;;;;;51.57;29.20;;;;;;;;;;5133000;27;346775;-79
2024/02/27 07:14:14;;;;;;;56.70;29.43;;;;;;;;;;5144713;27;318383;-79
2024/02/27 07:16:41;;;;;;;46.87;28.13;;;;;;;;;;5122418;27;318616;-79
2024/02/27 07:19:08;;;;;;;52.47;29.03;;;;;;;;;;5145002;27;318546;-80
2024/02/27 07:21:36;;;;;;;47.03;30.30;;;;;;;;;;5135161;27;318800;-80
2024/02/27 07:24:12;;;;;;;53.93;32.63;;;;;;;;;;5143943;27;351244;-79
2024/02/27 07:26:39;;;;;;;51.27;29.30;;;;;;;;;;5123070;27;346097;-78
2024/02/27 07:29:09;;;;;;;51.30;30.80;;;;;;;;;;5142765;27;331913;-80
2024/02/27 07:31:39;;;;;;;52.90;32.20;;;;;;;;;;5132075;27;318859;-80
2024/02/27 07:34:11;;;;;;;56.67;32.27;;;;;;;;;;5146470;27;318575;-80
2024/02/27 07:36:39;;;;;;;65.07;34.37;;;;;;;;;;5129375;27;318339;-79
2024/02/27 07:39:10;;;;;;;62.40;32.10;;;;;;;;;;5143459;27;357416;-80
2024/02/27 07:41:39;;;;;;;48.83;30.70;;;;;;;;;;5132043;27;318929;-80
2024/02/27 07:44:07;;;;;;;63.03;30.93;;;;;;;;;;5144364;27;318787;-80
2024/02/27 07:46:37;;;;;;;59.30;31.60;;;;;;;;;;5126908;27;319204;-79
2024/02/27 07:49:09;;;;;;;63.10;32.03;;;;;;;;;;5142870;27;317646;-79
2024/02/27 07:51:37;;;;;;;80.00;54.20;;;;;;;;;;5129921;27;319321;-79
2024/02/27 07:54:05;;;;;;;56.40;34.93;;;;;;;;;;5141170;27;318386;-80
2024/02/27 07:56:35;;;;;;;55.70;31.93;;;;;;;;;;5130041;27;319050;-79
2024/02/27 07:59:11;;;;;;;50.40;29.07;;;;;;;;;;5124629;27;317743;-79
2024/02/27 08:01:39;;;;;;;50.30;29.77;;;;;;;;;;5134932;27;318761;-78
2024/02/27 08:04:09;;;;;;;49.60;27.77;;;;;;;;;;5146987;27;319273;-80
2024/02/27 08:06:39;;;;;;;51.47;28.87;;;;;;;;;;5130240;27;318708;-78
2024/02/27 08:09:06;;;;;;;55.87;28.97;;;;;;;;;;5148415;27;317682;-79
2024/02/27 08:14:16;;;;;;;47.20;28.60;;;;;;;;;;5147935;27;318341;-80
2024/02/27 08:16:45;;;;;;;42.13;28.20;;;;;;;;;;5126504;27;318457;-80
2024/02/27 08:19:30;;;;;;;45.40;29.80;;;;;;;;;;5153775;27;318993;-80
2024/02/27 08:22:03;;;;;;;54.53;30.40;;;;;;;;;;5147883;27;418773;-80
2024/02/27 08:24:35;;;;;;;54.03;27.87;;;;;;;;;;5148341;27;317054;-80
2024/02/27 08:27:06;;;;;;;49.23;30.27;;;;;;;;;;5162734;27;318500;-80
2024/02/27 08:29:35;;;;;;;45.90;26.13;;;;;;;;;;5152152;27;318442;-81
2024/02/27 08:32:02;;;;;;;47.93;26.07;;;;;;;;;;5162096;27;318821;-79
2024/02/27 08:34:31;;;;;;;52.37;29.67;;;;;;;;;;5148749;27;317684;-80
2024/02/27 08:37:01;;;;;;;45.83;29.83;;;;;;;;;;5154061;27;318131;-78
2024/02/27 08:39:28;;;;;;;50.27;29.50;;;;;;;;;;5133669;27;318103;-80
2024/02/27 08:41:55;;;;;;;44.70;29.57;;;;;;;;;;5148262;27;317492;-80
2024/02/27 08:44:22;;;;;;;39.87;26.70;;;;;;;;;;5144708;27;319438;-80
2024/02/27 08:46:51;;;;;;;43.57;27.30;;;;;;;;;;5121712;27;418576;-79
2024/02/27 08:49:18;;;;;;;35.67;23.77;;;;;;;;;;5143196;27;319218;-79
2024/02/27 08:51:48;;;;;;;32.77;21.93;;;;;;;;;;5133897;27;318716;-80
2024/02/27 08:54:17;;;;;;;34.97;19.87;;;;;;;;;;5144378;27;318982;-79
2024/02/27 08:56:45;;;;;;;41.90;23.43;;;;;;;;;;5125828;27;319130;-80
2024/02/27 08:59:11;;;;;;;37.20;19.90;;;;;;;;;;5142650;27;318751;-80
2024/02/27 09:01:39;;;;;;;35.73;20.90;;;;;;;;;;5130961;27;319368;-79
2024/02/27 09:04:06;;;;;;;39.23;20.10;;;;;;;;;;5142821;27;318885;-79
2024/02/27 09:06:33;;;;;;;34.13;20.60;;;;;;;;;;5128289;27;318634;-79
2024/02/27 09:09:09;;;;;;;36.37;20.17;;;;;;;;;;5144583;27;319120;-79
2024/02/27 09:11:36;;;;;;;33.33;18.00;;;;;;;;;;5134300;27;319071;-80
2024/02/27 09:14:07;;;;;;;27.60;18.20;;;;;;;;;;5135184;27;317379;-78
2024/02/27 09:16:34;;;;;;;32.67;18.63;;;;;;;;;;5127433;27;318624;-79
2024/02/27 09:19:00;;;;;;;30.20;16.63;;;;;;;;;;5145181;27;318623;-79
2024/02/27 09:21:28;;;;;;;26.03;17.80;;;;;;;;;;5136637;27;319446;-79
2024/02/27 09:23:56;;;;;;;30.97;16.77;;;;;;;;;;5146175;27;318747;-79
2024/02/27 09:26:25;;;;;;;26.17;16.23;;;;;;;;;;5143686;27;319413;-80
2024/02/27 09:28:52;;;;;;;20.67;12.47;;;;;;;;;;5135298;27;319136;-78
2024/02/27 09:31:20;;;;;;;17.60;10.73;;;;;;;;;;5143525;27;318606;-81
2024/02/27 09:33:48;;;;;;;20.47;10.10;;;;;;;;;;5132946;27;318761;-79
2024/02/27 09:36:17;;;;;;;17.37;9.90;;;;;;;;;;5145624;27;318933;-79
2024/02/27 09:38:45;;;;;;;23.67;11.00;;;;;;;;;;5121980;27;317478;-79
2024/02/27 09:41:17;;;;;;;15.83;9.93;;;;;;;;;;5144464;27;318510;-80
2024/02/27 09:43:52;;;;;;;19.60;9.80;;;;;;;;;;5133182;27;318325;-80
2024/02/27 09:46:21;;;;;;;22.93;10.67;;;;;;;;;;5143414;27;317834;-79
2024/02/27 09:48:51;;;;;;;38.67;10.23;;;;;;;;;;5120793;27;418362;-80
2024/02/27 09:51:21;;;;;;;21.77;10.97;;;;;;;;;;5142903;27;318400;-79
2024/02/27 09:53:51;;;;;;;26.60;12.37;;;;;;;;;;5129247;27;418796;-80
2024/02/27 09:56:19;;;;;;;21.90;12.83;;;;;;;;;;5143791;27;317532;-81
2024/02/27 09:58:53;;;;;;;19.40;11.60;;;;;;;;;;5125781;27;318720;-80
2024/02/27 10:01:23;;;;;;;19.33;12.93;;;;;;;;;;5144135;27;317562;-80
2024/02/27 10:03:52;;;;;;;28.27;13.97;;;;;;;;;;5129926;27;417099;-79
2024/02/27 10:06:22;;;;;;;27.97;15.30;;;;;;;;;;5143811;27;319035;-79
2024/02/27 10:08:55;;;;;;;30.37;14.20;;;;;;;;;;5120207;27;419906;-80
2024/02/27 10:11:22;;;;;;;25.30;13.77;;;;;;;;;;5145347;27;317491;-79
2024/02/27 10:13:53;;;;;;;18.17;11.00;;;;;;;;;;5128292;27;418542;-80
2024/02/27 10:16:22;;;;;;;18.83;10.40;;;;;;;;;;5146196;27;318622;-79
2024/02/27 10:18:50;;;;;;;23.30;12.13;;;;;;;;;;5122885;27;419998;-79
2024/02/27 10:21:18;;;;;;;22.80;12.07;;;;;;;;;;5146769;27;318596;-79
2024/02/27 10:23:49;;;;;;;24.27;12.23;;;;;;;;;;5134324;27;319110;-80
2024/02/27 10:26:19;;;;;;;26.63;12.33;;;;;;;;;;5132102;27;317560;-80
2024/02/27 10:28:51;;;;;;;21.63;11.93;;;;;;;;;;5127991;27;319126;-81
2024/02/27 10:31:20;;;;;;;20.23;12.70;;;;;;;;;;5153469;27;319156;-81
2024/02/27 10:33:47;;;;;;;19.43;12.87;;;;;;;;;;5140793;27;418347;-80
2024/02/27 10:36:15;;;;;;;30.63;14.50;;;;;;;;;;5153940;27;318901;-81
2024/02/27 10:38:44;;;;;;;24.93;13.93;;;;;;;;;;5134135;27;318634;-80
2024/02/27 10:41:12;;;;;;;27.93;13.23;;;;;;;;;;5147024;27;319083;-80
2024/02/27 10:43:40;;;;;;;22.63;13.87;;;;;;;;;;5136657;27;319073;-81
2024/02/27 10:46:10;;;;;;;22.77;12.43;;;;;;;;;;5147544;27;318928;-81
2024/02/27 10:48:39;;;;;;;21.27;14.10;;;;;;;;;;5128493;27;318605;-82
2024/02/27 10:51:09;;;;;;;20.50;12.83;;;;;;;;;;5147417;27;319414;-81
2024/02/27 10:53:39;;;;;;;24.07;14.00;;;;;;;;;;5134796;27;319662;-80
2024/02/27 10:56:08;;;;;;;25.83;15.10;;;;;;;;;;5145938;27;318519;-80
2024/02/27 10:58:39;;;;;;;27.87;14.47;;;;;;;;;;5126360;27;318476;-81
2024/02/27 11:01:09;;;;;;;24.73;13.23;;;;;;;;;;5140405;27;318905;-80
2024/02/27 11:03:40;;;;;;;27.57;13.93;;;;;;;;;;5129440;27;319087;-80
2024/02/27 11:06:12;;;;;;;28.93;14.07;;;;;;;;;;5148926;27;319159;-79
2024/02/27 11:08:40;;;;;;;28.47;11.50;;;;;;;;;;5126652;27;318716;-80
2024/02/27 11:11:10;;;;;;;25.37;12.30;;;;;;;;;;5144111;27;319443;-80
2024/02/27 11:13:41;;;;;;;28.93;13.57;;;;;;;;;;5132535;27;318874;-81
2024/02/27 11:16:12;;;;;;;26.07;12.80;;;;;;;;;;5145561;27;319269;-80
2024/02/27 11:18:45;;;;;;;25.93;13.30;;;;;;;;;;5126689;27;319251;-80
2024/02/27 11:21:14;;;;;;;19.97;12.00;;;;;;;;;;5143981;27;319039;-81
2024/02/27 11:23:42;;;;;;;22.20;11.23;;;;;;;;;;5133444;27;330065;-81
2024/02/27 11:26:09;;;;;;;24.33;12.53;;;;;;;;;;5146487;27;318761;-80
2024/02/27 11:28:37;;;;;;;17.27;12.67;;;;;;;;;;5128658;27;319033;-79
2024/02/27 11:31:05;;;;;;;22.60;11.90;;;;;;;;;;5149892;27;319957;-81
2024/02/27 11:33:48;;;;;;;26.57;14.03;;;;;;;;;;5133223;27;348878;-80
2024/02/27 11:36:15;;;;;;;26.93;12.43;;;;;;;;;;5146683;27;319026;-80
2024/02/27 11:38:44;;;;;;;20.87;12.47;;;;;;;;;;5130651;27;319107;-80
2024/02/27 11:41:15;;;;;;;23.10;12.20;;;;;;;;;;5164673;27;317434;-79
2024/02/27 11:43:46;;;;;;;24.23;13.80;;;;;;;;;;5152682;27;317740;-80
2024/02/27 11:46:36;;;;;;;25.60;12.80;;;;;;;;;;5165125;27;316957;-79
2024/02/27 11:49:06;;;;;;;22.50;13.33;;;;;;;;;;5145115;27;419606;-80
2024/02/27 11:51:37;;;;;;;31.00;13.80;;;;;;;;;;5151076;27;317351;-79
2024/02/27 11:54:08;;;;;;;21.83;13.80;;;;;;;;;;5151326;27;318603;-81
2024/02/27 11:56:39;;;;;;;23.43;15.33;;;;;;;;;;5133204;27;319124;-80
2024/02/27 11:59:06;;;;;;;23.87;14.97;;;;;;;;;;5150896;27;318773;-81
2024/02/27 12:01:34;;;;;;;44.67;17.77;;;;;;;;;;5138246;27;318556;-80
2024/02/27 12:04:06;;;;;;;26.80;16.07;;;;;;;;;;5151983;27;318714;-81
2024/02/27 12:06:33;;;;;;;28.70;16.40;;;;;;;;;;5131639;27;319431;-80
2024/02/27 12:09:00;;;;;;;25.73;13.73;;;;;;;;;;5149592;27;319283;-81
2024/02/27 12:11:29;;;;;;;21.33;14.30;;;;;;;;;;5136403;27;401512;-80
2024/02/27 12:13:59;;;;;;;17.60;11.70;;;;;;;;;;5148556;27;317639;-81
2024/02/27 12:16:29;;;;;;;33.07;12.20;;;;;;;;;;5137707;27;317785;-80
2024/02/27 12:18:59;;;;;;;21.50;11.83;;;;;;;;;;5144587;27;346579;-82
2024/02/27 12:21:35;;;;;;;22.67;14.33;;;;;;;;;;5138785;27;318748;-82
2024/02/27 12:24:14;;;;;;;25.57;12.77;;;;;;;;;;5150318;27;317545;-82
2024/02/27 12:26:42;;;;;;;24.80;12.23;;;;;;;;;;5130626;27;319953;-80
2024/02/27 12:29:13;;;;;;;24.53;12.47;;;;;;;;;;5148800;27;352756;-82
2024/02/27 12:31:41;;;;;;;22.40;12.77;;;;;;;;;;5139156;27;317305;-81
2024/02/27 12:34:08;;;;;;;29.03;15.53;;;;;;;;;;5151512;27;318829;-81
2024/02/27 12:36:36;;;;;;;26.77;14.87;;;;;;;;;;5125314;27;351605;-81
2024/02/27 12:39:03;;;;;;;20.07;10.97;;;;;;;;;;5146379;27;318892;-79
2024/02/27 12:41:32;;;;;;;27.10;11.33;;;;;;;;;;5138135;27;318930;-81
2024/02/27 12:44:00;;;;;;;16.47;9.73;;;;;;;;;;5151479;27;318629;-80
2024/02/27 12:46:27;;;;;;;32.63;14.23;;;;;;;;;;5135888;27;318417;-81
2024/02/27 12:48:55;;;;;;;26.77;14.60;;;;;;;;;;5141105;27;318884;-80
2024/02/27 12:51:23;;;;;;;19.90;12.87;;;;;;;;;;5148626;27;319181;-80
2024/02/27 12:53:52;;;;;;;21.83;11.17;;;;;;;;;;5133338;27;418626;-81
2024/02/27 12:56:20;;;;;;;18.57;11.20;;;;;;;;;;5147967;27;324115;-82
2024/02/27 12:58:50;;;;;;;27.00;12.50;;;;;;;;;;5127131;27;357893;-79
2024/02/27 13:01:18;;;;;;;24.97;12.73;;;;;;;;;;5148668;27;319029;-79
2024/02/27 13:03:45;;;;;;;24.40;12.37;;;;;;;;;;5134930;27;318875;-79
2024/02/27 13:06:12;;;;;;;17.13;10.77;;;;;;;;;;5147708;27;318699;-81
2024/02/27 13:08:40;;;;;;;18.97;12.37;;;;;;;;;;5130681;27;318710;-82
2024/02/27 13:11:10;;;;;;;20.70;10.73;;;;;;;;;;5146679;27;318914;-79
2024/02/27 13:13:38;;;;;;;23.40;11.97;;;;;;;;;;5137436;27;318488;-81
2024/02/27 13:16:07;;;;;;;22.43;11.43;;;;;;;;;;5147500;27;319438;-81
2024/02/27 13:18:39;;;;;;;26.80;12.70;;;;;;;;;;5130702;27;319261;-82
2024/02/27 13:21:09;;;;;;;27.37;14.47;;;;;;;;;;5147981;27;319536;-82
2024/02/27 13:23:36;;;;;;;28.13;12.33;;;;;;;;;;5136309;27;319742;-79
2024/02/27 13:26:04;;;;;;;28.30;11.70;;;;;;;;;;5149174;27;319255;-82
2024/02/27 13:28:40;;;;;;;20.53;12.13;;;;;;;;;;5136182;27;322732;-80
2024/02/27 13:31:06;;;;;;;26.63;14.17;;;;;;;;;;5147429;27;319104;-80
2024/02/27 13:33:36;;;;;;;24.97;14.40;;;;;;;;;;5134560;27;350087;-79
2024/02/27 13:36:04;;;;;;;28.07;13.40;;;;;;;;;;5147488;27;318682;-81
2024/02/27 13:38:39;;;;;;;27.73;13.30;;;;;;;;;;5134929;27;319269;-82
2024/02/27 13:41:05;;;;;;;22.80;13.70;;;;;;;;;;5146799;27;318962;-80
2024/02/27 13:43:33;;;;;;;29.30;16.67;;;;;;;;;;5139246;27;339779;-81
2024/02/27 13:46:02;;;;;;;82.50;49.30;;;;;;;;;;5164715;27;316411;-79
2024/02/27 13:48:29;;;;;;;34.53;19.30;;;;;;;;;;5152872;27;317446;-79
2024/02/27 13:50:55;;;;;;;30.10;17.00;;;;;;;;;;5158436;27;317998;-80
2024/02/27 13:53:22;;;;;;;33.33;16.40;;;;;;;;;;5165093;27;335820;-78
2024/02/27 13:55:50;;;;;;;31.67;16.83;;;;;;;;;;5149970;27;418506;-79
2024/02/27 13:58:18;;;;;;;38.10;17.97;;;;;;;;;;5164189;27;317502;-79
2024/02/27 14:00:45;;;;;;;28.00;16.00;;;;;;;;;;5128815;27;318820;-80
2024/02/27 14:03:15;;;;;;;23.95;16.02;;;;;;;;;;5144076;27;345524;-82
2024/02/27 14:05:43;;;;;;;30.88;18.05;;;;;;;;;;5133612;27;319276;-81
2024/02/27 14:08:12;;;;;;;33.83;18.77;;;;;;;;;;5145982;27;318759;-80
2024/02/27 14:10:41;;;;;;;32.73;19.43;;;;;;;;;;5125214;27;337901;-79
2024/02/27 14:13:08;;;;;;;57.13;35.45;;;;;;;;;;5145656;27;319044;-81
2024/02/27 14:15:36;;;;;;;42.17;20.90;;;;;;;;;;5132098;27;356290;-81
2024/02/27 14:18:05;;;;;;;33.83;18.90;;;;;;;;;;5117422;27;319196;-80
2024/02/27 14:22:07;;;;;;;36.30;20.07;;;;;;;;;;4448688;31;20253;-64